Valencia, Pennsylvania
Current Conditions -  °F | °C
As of 11:35 AM on Thursday 30 Oct 2014 (Local Time) from KBTP Reporting Station
Overcast Overcast  
Wind Chill: 46°   Ceiling: 5000
Heat Index: 46°   Visibility: 10mi
Dew Point: 37°   Wind: 3mph
Humidity: 71%   Direction: 300°WNW
Pressure: 30.12"   Gusts: NA
Location:  40.68°N, 79.99°W
Report Text: KBTP 301535Z AUTO 30003KT 10SM FEW021 FEW029 OVC050 08/03 A3012 RMK AO1
Loading
Personal Weather Stations






























Interactive Weather Map
Tropical Storm Tracking
New forecast layout! Learn more

10-Day Weather Forecast

Advertisements
Track Severe Weather on mobile